createdAt,value
2019-05-15T00:00:55.150Z,1.71
2019-05-15T00:01:55.191Z,1.71
2019-05-15T00:02:55.120Z,1.79
2019-05-15T00:03:55.107Z,1.89
2019-05-15T00:04:55.094Z,1.83
2019-05-15T00:05:55.093Z,1.75
2019-05-15T00:06:55.085Z,1.72
2019-05-15T00:07:55.136Z,1.73
2019-05-15T00:08:55.076Z,1.71
2019-05-15T00:09:55.056Z,1.61
2019-05-15T00:10:55.043Z,1.50
2019-05-15T00:11:55.037Z,1.33
2019-05-15T00:12:55.012Z,1.34
2019-05-15T00:13:55.060Z,1.18
2019-05-15T00:14:54.983Z,1.22
2019-05-15T00:15:55.019Z,1.22
2019-05-15T00:16:54.979Z,1.32
2019-05-15T00:17:54.951Z,1.32
2019-05-15T00:18:54.935Z,1.40
2019-05-15T00:19:54.995Z,1.40
2019-05-15T00:20:54.930Z,1.52
2019-05-15T00:21:54.912Z,1.54
2019-05-15T00:22:54.909Z,1.46
2019-05-15T00:23:54.893Z,1.51
2019-05-15T00:24:54.875Z,1.43
2019-05-15T00:25:54.916Z,1.43
2019-05-15T00:26:54.845Z,1.39
2019-05-15T00:27:54.833Z,1.43
2019-05-15T00:29:08.506Z,1.39
2019-05-15T00:29:57.797Z,1.40
2019-05-15T00:30:54.800Z,1.37
2019-05-15T00:31:55.005Z,1.32
2019-05-15T00:32:54.778Z,1.22
2019-05-15T00:33:54.784Z,1.22
2019-05-15T00:34:54.757Z,1.25
2019-05-15T00:35:54.766Z,1.28
2019-05-15T00:36:54.738Z,1.21
2019-05-15T00:37:54.792Z,1.16
2019-05-15T00:38:54.711Z,1.18
2019-05-15T00:39:54.723Z,1.15
2019-05-15T00:40:54.700Z,1.22
2019-05-15T00:41:54.961Z,1.22
2019-05-15T00:42:54.677Z,1.24
2019-05-15T00:43:54.866Z,1.21
2019-05-15T00:44:54.656Z,1.24
2019-05-15T00:45:54.631Z,1.07
2019-05-15T00:46:54.625Z,0.98
2019-05-15T00:47:54.618Z,0.97
2019-05-15T00:48:54.635Z,1.03
2019-05-15T00:49:54.653Z,1.07
2019-05-15T00:50:54.577Z,1.08
2019-05-15T00:51:54.591Z,1.07
2019-05-15T00:52:54.566Z,1.03
2019-05-15T00:53:54.558Z,1.01
2019-05-15T00:54:54.546Z,0.98
2019-05-15T00:55:54.594Z,0.97
2019-05-15T00:56:54.504Z,0.96
2019-05-15T00:57:54.500Z,0.98
2019-05-15T00:58:54.492Z,0.90
2019-05-15T00:59:54.497Z,0.92
2019-05-15T01:00:54.487Z,0.98
2019-05-15T01:01:54.547Z,0.92
2019-05-15T01:02:54.448Z,0.90
2019-05-15T01:03:54.435Z,0.88
2019-05-15T01:04:54.432Z,0.89
2019-05-15T01:05:54.411Z,0.79
2019-05-15T01:06:54.392Z,0.82
2019-05-15T01:07:54.483Z,0.88
2019-05-15T01:08:54.377Z,0.80
2019-05-15T01:09:54.369Z,0.86
2019-05-15T01:10:54.353Z,0.83
2019-05-15T01:11:54.338Z,0.78
2019-05-15T01:12:54.341Z,0.88
2019-05-15T01:13:55.277Z,0.88
2019-05-15T01:14:54.301Z,0.89
2019-05-15T01:15:54.295Z,0.85
2019-05-15T01:16:54.287Z,0.78
2019-05-15T01:17:54.279Z,0.67
2019-05-15T01:18:54.276Z,0.57
2019-05-15T01:19:54.337Z,0.53
2019-05-15T01:20:54.237Z,0.45
2019-05-15T01:21:54.226Z,0.51
2019-05-15T01:22:54.214Z,0.61
2019-05-15T01:23:54.198Z,0.67
2019-05-15T01:24:54.191Z,0.79
2019-05-15T01:25:54.247Z,0.78
2019-05-15T01:26:54.171Z,0.68
2019-05-15T01:27:54.191Z,0.68
2019-05-15T01:28:54.162Z,0.64
2019-05-15T01:29:54.146Z,0.57
2019-05-15T01:30:54.140Z,0.60
2019-05-15T01:31:54.173Z,0.57
2019-05-15T01:32:54.102Z,0.51
2019-05-15T01:33:54.109Z,0.49
2019-05-15T01:34:54.079Z,0.51
2019-05-15T01:35:54.078Z,0.58
2019-05-15T01:36:54.058Z,0.58
2019-05-15T01:37:54.106Z,0.48
2019-05-15T01:38:54.053Z,0.51
2019-05-15T01:39:54.037Z,0.46
2019-05-15T01:40:54.028Z,0.42
2019-05-15T01:41:53.996Z,0.36
2019-05-15T01:42:53.996Z,0.36
2019-05-15T01:43:54.090Z,0.33
2019-05-15T01:44:54.008Z,0.34
2019-05-15T01:45:53.970Z,0.42
2019-05-15T01:46:53.943Z,0.52
2019-05-15T01:47:53.930Z,0.45
2019-05-15T01:48:53.924Z,0.36
2019-05-15T01:49:53.999Z,0.42
2019-05-15T01:50:53.909Z,0.24
2019-05-15T01:51:53.889Z,0.21
2019-05-15T01:52:53.884Z,0.10
2019-05-15T01:53:53.872Z,0.07
2019-05-15T01:54:53.851Z,0.03
2019-05-15T01:55:53.911Z,-0.06
2019-05-15T01:56:53.890Z,-0.06
2019-05-15T01:57:53.830Z,-0.04
2019-05-15T01:58:53.823Z,-0.04
2019-05-15T01:59:57.445Z,-0.09
2019-05-15T02:00:54.848Z,-0.04
2019-05-15T02:01:53.780Z,-0.05
2019-05-15T02:02:53.786Z,-0.05
2019-05-15T02:03:53.765Z,-0.05
2019-05-15T02:04:53.745Z,-0.13
2019-05-15T02:05:53.725Z,-0.19
2019-05-15T02:06:53.799Z,-0.18
2019-05-15T02:07:53.706Z,-0.15
2019-05-15T02:08:53.696Z,-0.30
2019-05-15T02:09:53.690Z,-0.37
2019-05-15T02:10:53.678Z,-0.39
2019-05-15T02:11:53.659Z,-0.31
2019-05-15T02:12:53.741Z,-0.23
2019-05-15T02:13:53.636Z,-0.30
2019-05-15T02:14:53.624Z,-0.26
2019-05-15T02:15:53.624Z,-0.31
2019-05-15T02:16:53.614Z,-0.36
2019-05-15T02:17:53.602Z,-0.34
2019-05-15T02:18:53.656Z,-0.45
2019-05-15T02:19:53.584Z,-0.47
2019-05-15T02:20:53.595Z,-0.42
2019-05-15T02:21:53.562Z,-0.37
2019-05-15T02:22:53.540Z,-0.41
2019-05-15T02:23:53.521Z,-0.50
2019-05-15T02:24:53.593Z,-0.45
2019-05-15T02:25:53.501Z,-0.48
2019-05-15T02:26:53.495Z,-0.52
2019-05-15T02:27:53.482Z,-0.54
2019-05-15T02:28:53.487Z,-0.54
2019-05-15T02:29:53.463Z,-0.48
2019-05-15T02:30:53.514Z,-0.63
2019-05-15T02:31:53.437Z,-0.52
2019-05-15T02:32:53.436Z,-0.57
2019-05-15T02:33:53.424Z,-0.60
2019-05-15T02:34:53.409Z,-0.62
2019-05-15T02:35:53.454Z,-0.62
2019-05-15T02:36:53.457Z,-0.72
2019-05-15T02:37:53.378Z,-0.73
2019-05-15T02:38:53.365Z,-0.69
2019-05-15T02:39:53.368Z,-0.87
2019-05-15T02:40:53.359Z,-0.80
2019-05-15T02:41:53.316Z,-0.89
2019-05-15T02:42:53.379Z,-0.86
2019-05-15T02:43:53.297Z,-0.89
2019-05-15T02:44:53.297Z,-0.94
2019-05-15T02:45:53.297Z,-0.95
2019-05-15T02:46:53.278Z,-0.95
2019-05-15T02:47:53.246Z,-0.92
2019-05-15T02:48:53.447Z,-0.87
2019-05-15T02:49:53.264Z,-1.00
2019-05-15T02:50:53.209Z,-1.18
2019-05-15T02:51:53.200Z,-1.13
2019-05-15T02:52:53.190Z,-1.21
2019-05-15T02:53:53.178Z,-1.31
2019-05-15T02:54:53.238Z,-1.35
2019-05-15T02:55:53.155Z,-1.36
2019-05-15T02:56:53.147Z,-1.30
2019-05-15T02:57:53.146Z,-1.38
2019-05-15T02:58:53.151Z,-1.46
2019-05-15T02:59:53.120Z,-1.38
2019-05-15T03:00:53.746Z,-1.38
2019-05-15T03:01:53.087Z,-1.36
2019-05-15T03:02:53.074Z,-1.25
2019-05-15T03:03:53.067Z,-1.13
2019-05-15T03:04:53.054Z,-0.89
2019-05-15T03:05:53.061Z,-0.86
2019-05-15T03:06:53.097Z,-0.94
2019-05-15T03:07:53.027Z,-0.80
2019-05-15T03:08:53.021Z,-0.83
2019-05-15T03:09:52.998Z,-0.87
2019-05-15T03:10:52.986Z,-0.75
2019-05-15T03:11:52.977Z,-0.60
2019-05-15T03:12:53.053Z,-0.72
2019-05-15T03:13:52.949Z,-0.73
2019-05-15T03:14:52.955Z,-0.73
2019-05-15T03:15:52.965Z,-0.70
2019-05-15T03:16:52.915Z,-0.73
2019-05-15T03:17:52.905Z,-0.72
2019-05-15T03:18:55.727Z,-0.63
2019-05-15T03:19:52.903Z,-0.62
2019-05-15T03:20:52.873Z,-0.55
2019-05-15T03:21:52.872Z,-0.55
2019-05-15T03:22:52.851Z,-0.44
2019-05-15T03:23:52.839Z,-0.45
2019-05-15T03:24:52.915Z,-0.41
2019-05-15T03:25:52.812Z,-0.45
2019-05-15T03:26:52.830Z,-0.48
2019-05-15T03:27:52.789Z,-0.44
2019-05-15T03:28:52.781Z,-0.37
2019-05-15T03:29:52.775Z,-0.39
2019-05-15T03:31:15.543Z,-0.42
2019-05-15T03:32:13.434Z,-0.42
2019-05-15T03:33:02.254Z,-0.36
2019-05-15T03:33:54.999Z,-0.50
2019-05-15T03:34:56.561Z,-0.55
2019-05-15T03:35:55.015Z,-0.54
2019-05-15T03:36:53.503Z,-0.66
2019-05-15T03:37:52.673Z,-0.87
2019-05-15T03:38:52.666Z,-0.84
2019-05-15T03:39:52.652Z,-0.80
2019-05-15T03:40:52.647Z,-0.73
2019-05-15T03:41:52.701Z,-0.65
2019-05-15T03:42:52.621Z,-0.65
2019-05-15T03:43:52.606Z,-0.62
2019-05-15T03:44:52.601Z,-0.66
2019-05-15T03:45:52.593Z,-0.51
2019-05-15T03:46:52.574Z,-0.47
2019-05-15T03:47:52.638Z,-0.59
2019-05-15T03:48:52.552Z,-0.37
2019-05-15T03:49:52.539Z,-0.42
2019-05-15T03:50:52.540Z,-0.34
2019-05-15T03:51:52.537Z,-0.29
2019-05-15T03:52:52.519Z,-0.11
2019-05-15T03:53:52.571Z,-0.05
2019-05-15T03:54:52.495Z,-0.08
2019-05-15T03:55:52.467Z,-0.05
2019-05-15T03:56:52.458Z,-0.09
2019-05-15T03:57:52.454Z,0.00
2019-05-15T03:58:52.435Z,-0.09
2019-05-15T03:59:52.492Z,-0.04
2019-05-15T04:00:52.407Z,-0.09
2019-05-15T04:01:52.398Z,-0.04
2019-05-15T04:02:52.384Z,-0.01
2019-05-15T04:03:52.380Z,-0.05
2019-05-15T04:04:56.558Z,0.02
2019-05-15T04:05:53.425Z,-0.06
2019-05-15T04:06:52.339Z,-0.04
2019-05-15T04:07:52.326Z,-0.04
2019-05-15T04:08:52.314Z,-0.01
2019-05-15T04:09:52.305Z,0.06
2019-05-15T04:10:52.295Z,0.09
2019-05-15T04:11:52.358Z,-0.01
2019-05-15T04:12:52.273Z,0.15
2019-05-15T04:13:52.258Z,0.09
2019-05-15T04:14:52.258Z,0.09
2019-05-15T04:15:52.236Z,0.02
2019-05-15T04:16:52.231Z,0.09
2019-05-15T04:17:52.279Z,0.06
2019-05-15T04:18:52.202Z,0.18
2019-05-15T04:19:52.195Z,0.30
2019-05-15T04:20:52.182Z,0.58
2019-05-15T04:21:52.168Z,0.61
2019-05-15T04:22:52.158Z,0.60
2019-05-15T04:23:52.211Z,0.78
2019-05-15T04:24:52.134Z,0.88
2019-05-15T04:25:52.124Z,1.01
2019-05-15T04:26:52.113Z,1.14
2019-05-15T04:27:52.150Z,1.26
2019-05-15T04:28:52.138Z,1.34
2019-05-15T04:29:52.164Z,1.42
2019-05-15T04:30:52.071Z,1.58
2019-05-15T04:32:01.072Z,1.68
2019-05-15T04:32:53.055Z,1.78
2019-05-15T04:33:52.100Z,1.91
2019-05-15T04:34:52.036Z,1.99
2019-05-15T04:35:52.083Z,2.10
2019-05-15T04:36:52.024Z,2.10
2019-05-15T04:37:51.999Z,2.12
2019-05-15T04:38:52.055Z,2.08
2019-05-15T04:39:52.056Z,2.04
2019-05-15T04:40:51.965Z,2.06
2019-05-15T04:41:52.220Z,2.01
2019-05-15T04:42:51.969Z,1.98
2019-05-15T04:43:51.932Z,1.90
2019-05-15T04:44:51.945Z,1.98
2019-05-15T04:45:51.906Z,2.08
2019-05-15T04:46:51.899Z,2.06
2019-05-15T04:47:51.990Z,2.12
2019-05-15T04:48:51.872Z,2.22
2019-05-15T04:49:51.873Z,2.12
2019-05-15T04:50:51.869Z,2.15
2019-05-15T04:51:51.839Z,2.22
2019-05-15T04:52:51.831Z,2.26
2019-05-15T04:53:51.966Z,2.31
2019-05-15T04:54:51.814Z,2.33
2019-05-15T04:55:51.835Z,2.41
2019-05-15T04:56:51.820Z,2.41
2019-05-15T04:57:51.786Z,2.59
2019-05-15T04:58:51.754Z,2.67
2019-05-15T04:59:52.009Z,2.64
2019-05-15T05:00:51.751Z,2.76
2019-05-15T05:02:13.010Z,2.89
2019-05-15T05:02:52.713Z,2.97
2019-05-15T05:03:51.700Z,2.94
2019-05-15T05:04:51.698Z,2.91
2019-05-15T05:05:51.777Z,3.07
2019-05-15T05:06:51.664Z,3.06
2019-05-15T05:07:51.676Z,3.03
2019-05-15T05:08:51.647Z,3.07
2019-05-15T05:09:51.632Z,3.06
2019-05-15T05:10:51.622Z,3.15
2019-05-15T05:11:51.676Z,3.15
2019-05-15T05:12:51.598Z,3.21
2019-05-15T05:13:51.598Z,3.21
2019-05-15T05:14:51.588Z,3.20
2019-05-15T05:15:51.569Z,3.30
2019-05-15T05:16:51.554Z,3.27
2019-05-15T05:17:51.618Z,3.34
2019-05-15T05:18:51.526Z,3.40
2019-05-15T05:19:51.567Z,3.47
2019-05-15T05:20:51.512Z,3.57
2019-05-15T05:21:51.499Z,3.68
2019-05-15T05:22:51.511Z,3.64
2019-05-15T05:23:51.691Z,3.68
2019-05-15T05:24:51.459Z,3.83
2019-05-15T05:25:51.446Z,3.89
2019-05-15T05:26:51.440Z,3.97
2019-05-15T05:27:51.422Z,4.00
2019-05-15T05:28:51.417Z,4.12
2019-05-15T05:29:51.620Z,4.18
2019-05-15T05:30:51.397Z,4.21
2019-05-15T05:31:51.376Z,4.22
2019-05-15T05:32:51.371Z,4.33
2019-05-15T05:33:51.354Z,4.40
2019-05-15T05:34:51.340Z,4.61
2019-05-15T05:35:51.397Z,4.65
2019-05-15T05:36:51.330Z,4.84
2019-05-15T05:37:51.310Z,4.99
2019-05-15T05:38:51.295Z,5.14
2019-05-15T05:39:51.284Z,5.37
2019-05-15T05:40:51.292Z,5.64
2019-05-15T05:41:51.331Z,5.91
2019-05-15T05:42:51.259Z,6.30
2019-05-15T05:43:51.242Z,6.53
2019-05-15T05:44:51.228Z,6.90
2019-05-15T05:45:51.216Z,7.35
2019-05-15T05:46:51.206Z,7.74
2019-05-15T05:47:51.269Z,8.02
2019-05-15T05:48:51.191Z,8.18
2019-05-15T05:49:51.170Z,8.51
2019-05-15T05:50:51.160Z,9.02
2019-05-15T05:51:51.151Z,9.25
2019-05-15T05:52:51.135Z,9.48
2019-05-15T05:53:51.339Z,9.66
2019-05-15T05:54:51.123Z,9.83
2019-05-15T05:55:53.196Z,9.78
2019-05-15T05:56:51.092Z,10.14
2019-05-15T05:57:51.086Z,10.25
2019-05-15T05:58:51.070Z,10.30
2019-05-15T05:59:51.124Z,10.56
2019-05-15T06:00:51.052Z,10.53
2019-05-15T06:01:51.039Z,10.36
2019-05-15T06:02:52.303Z,10.15
2019-05-15T06:03:51.018Z,10.03
2019-05-15T06:04:51.001Z,9.53
2019-05-15T06:05:51.056Z,9.52
2019-05-15T06:07:06.055Z,9.71
2019-05-15T06:07:51.969Z,9.91
2019-05-15T06:08:50.953Z,9.88
2019-05-15T06:09:50.942Z,9.71
2019-05-15T06:10:50.932Z,9.70
2019-05-15T06:11:50.986Z,9.75
2019-05-15T06:12:50.917Z,9.88
2019-05-15T06:13:52.614Z,9.89
2019-05-15T06:14:50.885Z,9.75
2019-05-15T06:15:50.883Z,9.71
2019-05-15T06:16:50.865Z,10.15
2019-05-15T06:17:50.918Z,9.82
2019-05-15T06:18:50.851Z,9.63
2019-05-15T06:19:50.861Z,9.89
2019-05-15T06:20:50.815Z,10.33
2019-05-15T06:21:56.679Z,10.22
2019-05-15T06:22:51.864Z,10.44
2019-05-15T06:23:55.164Z,10.59
2019-05-15T06:24:51.774Z,10.55
2019-05-15T06:25:50.760Z,10.77
2019-05-15T06:26:50.754Z,10.55
2019-05-15T06:27:50.739Z,9.93
2019-05-15T06:28:50.837Z,10.07
2019-05-15T06:29:50.724Z,10.07
2019-05-15T06:30:50.703Z,9.97
2019-05-15T06:31:50.688Z,9.63
2019-05-15T06:33:04.548Z,9.58
2019-05-15T06:33:51.752Z,9.12
2019-05-15T06:34:50.653Z,8.53
2019-05-15T06:35:50.649Z,8.37
2019-05-15T06:36:50.631Z,8.03
2019-05-15T06:37:50.620Z,8.00
2019-05-15T06:38:50.614Z,8.04
2019-05-15T06:39:50.818Z,8.03
2019-05-15T06:40:50.586Z,8.32
2019-05-15T06:41:50.586Z,8.18
2019-05-15T06:42:50.569Z,7.85
2019-05-15T06:43:50.551Z,8.00
2019-05-15T06:44:50.545Z,7.77
2019-05-15T06:45:50.610Z,7.53
2019-05-15T06:46:50.534Z,7.55
2019-05-15T06:47:50.512Z,7.38
2019-05-15T06:48:50.503Z,7.29
2019-05-15T06:49:50.483Z,7.22
2019-05-15T06:50:50.473Z,7.24
2019-05-15T06:51:50.527Z,7.34
2019-05-15T06:52:50.454Z,7.41
2019-05-15T06:53:50.434Z,7.47
2019-05-15T06:54:50.428Z,7.59
2019-05-15T06:55:50.411Z,7.81
2019-05-15T06:56:50.405Z,8.03
2019-05-15T06:57:50.460Z,8.40
2019-05-15T06:58:50.380Z,8.42
2019-05-15T06:59:50.366Z,8.68
2019-05-15T07:00:50.355Z,9.46
2019-05-15T07:01:50.347Z,9.68
2019-05-15T07:02:50.339Z,9.42
2019-05-15T07:03:50.394Z,9.23
2019-05-15T07:04:50.309Z,9.10
2019-05-15T07:05:51.073Z,9.04
2019-05-15T07:06:50.290Z,8.72
2019-05-15T07:07:50.277Z,8.58
2019-05-15T07:08:50.269Z,8.65
2019-05-15T07:09:50.341Z,8.68
2019-05-15T07:10:50.260Z,8.69
2019-05-15T07:11:50.233Z,8.79
2019-05-15T07:12:51.524Z,8.51
2019-05-15T07:13:50.206Z,8.25
2019-05-15T07:14:50.205Z,8.39
2019-05-15T07:15:50.255Z,8.28
2019-05-15T07:16:50.180Z,8.45
2019-05-15T07:17:50.177Z,8.72
2019-05-15T07:18:50.156Z,9.10
2019-05-15T07:19:50.138Z,8.93
2019-05-15T07:20:50.156Z,8.84
2019-05-15T07:21:50.188Z,9.05
2019-05-15T07:22:50.116Z,10.00
2019-05-15T07:23:50.105Z,10.71
2019-05-15T07:24:51.706Z,10.74
2019-05-15T07:25:50.408Z,10.42
2019-05-15T07:26:50.062Z,10.44
2019-05-15T07:27:50.116Z,10.99
2019-05-15T07:28:50.036Z,10.68
2019-05-15T07:29:50.025Z,11.13
2019-05-15T07:30:50.019Z,11.82
2019-05-15T07:31:50.000Z,12.05
2019-05-15T07:32:49.995Z,12.13
2019-05-15T07:33:50.209Z,12.09
2019-05-15T07:34:49.979Z,11.80
2019-05-15T07:35:49.966Z,11.49
2019-05-15T07:36:49.963Z,11.34
2019-05-15T07:37:49.941Z,11.25
2019-05-15T07:38:49.931Z,11.67
2019-05-15T07:39:50.000Z,11.38
2019-05-15T07:40:59.289Z,12.11
2019-05-15T07:41:50.902Z,12.79
2019-05-15T07:42:49.883Z,13.52
2019-05-15T07:43:49.864Z,13.80
2019-05-15T07:44:49.858Z,14.24
2019-05-15T07:45:55.292Z,14.01
2019-05-15T07:46:50.843Z,14.47
2019-05-15T07:47:49.818Z,14.78
2019-05-15T07:48:49.843Z,14.72
2019-05-15T07:49:49.796Z,14.24
2019-05-15T07:50:50.073Z,14.12
2019-05-15T07:51:49.847Z,13.92
2019-05-15T07:52:49.787Z,13.27
2019-05-15T07:53:49.753Z,12.08
2019-05-15T07:54:49.740Z,11.74
2019-05-15T07:55:51.165Z,11.24
2019-05-15T07:56:49.729Z,11.16
2019-05-15T07:57:49.769Z,10.96
2019-05-15T07:58:52.458Z,10.56
2019-05-15T07:59:49.680Z,10.21
2019-05-15T08:00:49.672Z,10.43
2019-05-15T08:01:49.657Z,10.55
2019-05-15T08:02:49.650Z,10.59
2019-05-15T08:03:58.979Z,10.34
2019-05-15T08:04:50.633Z,10.10
2019-05-15T08:05:58.631Z,10.03
2019-05-15T08:06:50.603Z,10.15
2019-05-15T08:07:49.594Z,10.30
2019-05-15T08:08:49.608Z,10.33
2019-05-15T08:09:49.645Z,10.39
2019-05-15T08:10:49.552Z,10.59
2019-05-15T08:11:49.555Z,10.88
2019-05-15T08:12:49.699Z,11.20
2019-05-15T08:13:49.521Z,11.41
2019-05-15T08:14:50.855Z,11.59
2019-05-15T08:15:49.568Z,11.64
2019-05-15T08:16:49.499Z,11.44
2019-05-15T08:18:03.923Z,11.54
2019-05-15T08:18:50.465Z,11.28
2019-05-15T08:19:49.463Z,11.17
2019-05-15T08:20:49.510Z,10.89
2019-05-15T08:21:51.764Z,10.65
2019-05-15T08:22:49.415Z,11.03
2019-05-15T08:23:49.405Z,10.89
2019-05-15T08:24:49.393Z,11.03
2019-05-15T08:25:49.380Z,11.03
2019-05-15T08:26:49.370Z,11.38
2019-05-15T08:27:49.426Z,11.86
2019-05-15T08:28:49.348Z,12.31
2019-05-15T08:29:49.337Z,12.57
2019-05-15T08:30:49.982Z,12.31
2019-05-15T08:31:49.321Z,12.20
2019-05-15T08:32:51.672Z,12.31
2019-05-15T08:33:49.365Z,12.26
2019-05-15T08:34:49.277Z,12.31
2019-05-15T08:35:51.821Z,12.31
2019-05-15T08:36:49.256Z,12.26
2019-05-15T08:37:49.277Z,12.31
2019-05-15T08:38:49.235Z,12.24
2019-05-15T08:39:49.294Z,12.33
2019-05-15T08:40:49.357Z,12.51
2019-05-15T08:41:49.198Z,12.49
2019-05-15T08:42:56.396Z,12.62
2019-05-15T08:43:50.175Z,12.56
2019-05-15T08:44:49.167Z,12.16
2019-05-15T08:45:49.945Z,11.99
2019-05-15T08:46:49.142Z,12.02
2019-05-15T08:47:49.456Z,12.06
2019-05-15T08:48:49.322Z,12.39
2019-05-15T08:49:49.126Z,12.60
2019-05-15T08:50:49.224Z,12.78
2019-05-15T08:51:49.163Z,12.70
2019-05-15T08:52:49.085Z,12.82
2019-05-15T08:53:49.062Z,12.84
2019-05-15T08:54:49.069Z,12.99
2019-05-15T08:55:49.052Z,13.24
2019-05-15T08:56:49.030Z,13.37
2019-05-15T08:57:55.725Z,13.25
2019-05-15T08:58:50.005Z,12.75
2019-05-15T08:59:49.007Z,12.57
2019-05-15T09:00:52.218Z,12.46
2019-05-15T09:01:49.148Z,12.62
2019-05-15T09:02:49.058Z,12.85
2019-05-15T09:03:49.181Z,12.77
2019-05-15T09:04:48.936Z,12.33
2019-05-15T09:05:48.957Z,12.29
2019-05-15T09:06:49.643Z,12.42
2019-05-15T09:07:48.930Z,12.20
2019-05-15T09:08:49.208Z,12.45
2019-05-15T09:09:49.098Z,12.60
2019-05-15T09:10:50.392Z,12.70
2019-05-15T09:11:48.871Z,12.60
2019-05-15T09:12:50.368Z,12.69
2019-05-15T09:13:53.891Z,12.82
2019-05-15T09:14:49.891Z,12.82
2019-05-15T09:15:48.808Z,12.87
2019-05-15T09:16:49.139Z,13.03
2019-05-15T09:17:48.982Z,13.22
2019-05-15T09:18:48.786Z,13.46
2019-05-15T09:19:48.780Z,13.71
2019-05-15T09:20:49.523Z,13.92
2019-05-15T09:21:49.442Z,14.04
2019-05-15T09:22:49.123Z,13.89
2019-05-15T09:23:49.954Z,13.94
2019-05-15T09:24:49.080Z,14.16
2019-05-15T09:25:49.594Z,13.81
2019-05-15T09:26:48.961Z,13.55
2019-05-15T09:27:48.977Z,13.98
2019-05-15T09:28:49.381Z,14.37
2019-05-15T09:29:48.673Z,14.69
2019-05-15T09:30:48.649Z,14.35
2019-05-15T09:31:48.625Z,14.20
2019-05-15T09:32:48.739Z,13.96
2019-05-15T09:33:49.270Z,14.14
2019-05-15T09:34:54.828Z,14.25
2019-05-15T09:35:49.596Z,14.50
2019-05-15T09:36:48.783Z,14.75
2019-05-15T09:37:48.909Z,14.74
2019-05-15T09:38:49.227Z,14.39
2019-05-15T09:39:49.065Z,14.39
2019-05-15T09:40:50.331Z,14.60
2019-05-15T09:41:48.843Z,14.81
2019-05-15T09:42:48.838Z,14.94
2019-05-15T09:43:48.695Z,14.90
2019-05-15T09:44:48.754Z,15.28
2019-05-15T09:45:49.210Z,14.44
2019-05-15T09:46:48.945Z,14.65
2019-05-15T09:47:48.635Z,15.03
2019-05-15T09:48:51.592Z,14.95
2019-05-15T09:49:48.642Z,14.74
2019-05-15T09:50:49.249Z,14.74
2019-05-15T09:51:49.043Z,15.05
2019-05-15T09:52:50.154Z,15.54
2019-05-15T09:53:48.641Z,15.86
2019-05-15T09:54:49.297Z,15.68
2019-05-15T09:55:49.431Z,15.64
2019-05-15T09:56:49.478Z,15.96
2019-05-15T09:57:49.062Z,16.50
2019-05-15T09:58:48.949Z,16.26
2019-05-15T09:59:48.886Z,16.01
2019-05-15T10:00:52.249Z,15.72
2019-05-15T10:01:49.359Z,15.86
2019-05-15T10:02:48.741Z,16.14
2019-05-15T10:03:48.584Z,15.46
2019-05-15T10:04:57.377Z,15.48
2019-05-15T10:05:49.256Z,15.36
2019-05-15T10:06:48.656Z,15.17
2019-05-15T10:07:48.286Z,15.02
2019-05-15T10:08:49.061Z,15.33
2019-05-15T10:09:48.814Z,15.46
2019-05-15T10:10:48.892Z,15.26
2019-05-15T10:11:49.203Z,15.20
2019-05-15T10:12:49.486Z,15.26
2019-05-15T10:13:48.217Z,15.17
2019-05-15T10:14:49.208Z,15.15
2019-05-15T10:15:50.827Z,14.83
2019-05-15T10:16:48.606Z,14.52
2019-05-15T10:17:51.046Z,14.38
2019-05-15T10:18:51.215Z,14.02
2019-05-15T10:19:48.855Z,14.07
2019-05-15T10:20:48.084Z,14.10
2019-05-15T10:21:52.853Z,14.04
2019-05-15T10:22:49.042Z,14.09
2019-05-15T10:23:49.256Z,13.95
2019-05-15T10:24:50.825Z,13.94
2019-05-15T10:25:48.657Z,13.91
2019-05-15T10:26:49.040Z,13.95
2019-05-15T10:27:48.765Z,13.77
2019-05-15T10:28:49.262Z,13.52
2019-05-15T10:29:48.432Z,12.82
2019-05-15T10:30:49.283Z,12.71
2019-05-15T10:31:48.342Z,12.60
2019-05-15T10:32:48.715Z,12.79
2019-05-15T10:33:49.188Z,13.12
2019-05-15T10:34:47.908Z,13.06
2019-05-15T10:35:47.894Z,13.00
2019-05-15T10:36:49.500Z,12.89
2019-05-15T10:37:48.850Z,13.02
2019-05-15T10:38:48.836Z,13.07
2019-05-15T10:39:52.096Z,12.87
2019-05-15T10:40:59.816Z,12.74
2019-05-15T10:41:48.829Z,12.60
2019-05-15T10:42:49.509Z,12.84
2019-05-15T10:43:55.855Z,13.09
2019-05-15T10:44:48.934Z,13.12
2019-05-15T10:45:50.101Z,13.46
2019-05-15T10:46:48.419Z,13.51
2019-05-15T10:47:49.563Z,13.61
2019-05-15T10:48:49.323Z,13.46
2019-05-15T10:49:48.469Z,13.49
2019-05-15T10:50:47.728Z,13.71
2019-05-15T10:51:47.713Z,13.54
2019-05-15T10:52:48.949Z,13.46
2019-05-15T10:53:48.822Z,13.30
2019-05-15T10:54:47.698Z,13.06
2019-05-15T10:55:49.501Z,12.82
2019-05-15T10:56:47.660Z,12.69
2019-05-15T10:57:47.704Z,12.77
2019-05-15T10:58:50.216Z,12.64
2019-05-15T10:59:47.905Z,12.52
2019-05-15T11:00:49.384Z,12.54
2019-05-15T11:01:48.695Z,12.66
2019-05-15T11:02:48.955Z,12.87
2019-05-15T11:03:49.505Z,12.93
2019-05-15T11:04:48.719Z,12.96
2019-05-15T11:05:49.137Z,12.93
2019-05-15T11:06:49.033Z,12.82
2019-05-15T11:07:48.218Z,12.77
2019-05-15T11:08:51.027Z,12.84
2019-05-15T11:09:48.945Z,12.85
2019-05-15T11:10:49.443Z,12.85
2019-05-15T11:11:51.197Z,13.03
2019-05-15T11:12:47.654Z,13.20
2019-05-15T11:13:47.532Z,12.97
2019-05-15T11:14:47.462Z,12.87
2019-05-15T11:15:49.119Z,12.64
2019-05-15T11:16:48.681Z,12.63
2019-05-15T11:17:49.201Z,12.62
2019-05-15T11:18:48.180Z,12.54
2019-05-15T11:19:49.782Z,12.48
2019-05-15T11:20:48.638Z,12.49
2019-05-15T11:21:48.498Z,12.75
2019-05-15T11:22:50.006Z,12.81
2019-05-15T11:23:49.370Z,12.92
2019-05-15T11:24:50.795Z,12.84
2019-05-15T11:25:48.899Z,12.87
2019-05-15T11:26:50.000Z,13.00
2019-05-15T11:27:48.452Z,13.20
2019-05-15T11:28:49.668Z,13.43
2019-05-15T11:29:47.764Z,13.38
2019-05-15T11:30:49.005Z,13.29
2019-05-15T11:31:48.763Z,13.09
2019-05-15T11:32:48.605Z,13.17
2019-05-15T11:33:49.250Z,13.06
2019-05-15T11:34:49.264Z,12.85
2019-05-15T11:36:00.139Z,12.84
2019-05-15T11:36:48.666Z,12.97
2019-05-15T11:37:56.036Z,12.71
2019-05-15T11:38:48.570Z,12.67
2019-05-15T11:39:47.501Z,12.29
2019-05-15T11:40:47.148Z,12.31
2019-05-15T11:41:49.297Z,12.34
2019-05-15T11:42:48.795Z,12.51
2019-05-15T11:43:49.550Z,12.31
2019-05-15T11:44:48.404Z,12.31
2019-05-15T11:45:48.175Z,12.46
2019-05-15T11:46:49.367Z,12.44
2019-05-15T11:47:48.316Z,12.30
2019-05-15T11:48:49.704Z,12.44
2019-05-15T11:49:47.055Z,12.59
2019-05-15T11:50:47.038Z,12.79
2019-05-15T11:51:49.177Z,12.54
2019-05-15T11:52:47.022Z,12.37
2019-05-15T11:53:49.223Z,12.41
2019-05-15T11:54:49.450Z,12.54
2019-05-15T11:55:48.081Z,12.51
2019-05-15T11:56:49.059Z,12.42
2019-05-15T11:57:50.501Z,12.42
2019-05-15T11:58:46.950Z,12.62
2019-05-15T11:59:54.778Z,13.00
2019-05-15T12:00:49.155Z,12.99
2019-05-15T12:01:48.933Z,13.07
2019-05-15T12:02:46.900Z,13.21
2019-05-15T12:03:46.893Z,13.46
2019-05-15T12:04:46.878Z,13.69
2019-05-15T12:05:46.870Z,13.92
2019-05-15T12:06:58.730Z,13.61
2019-05-15T12:07:48.069Z,13.63
2019-05-15T12:08:46.856Z,13.70
2019-05-15T12:09:46.822Z,13.73
2019-05-15T12:10:46.811Z,14.06
2019-05-15T12:11:46.802Z,14.19
2019-05-15T12:12:49.456Z,14.14
2019-05-15T12:13:46.771Z,13.88
2019-05-15T12:14:49.480Z,14.13
2019-05-15T12:15:48.477Z,14.39
2019-05-15T12:17:02.401Z,14.49
2019-05-15T12:17:48.518Z,14.68
2019-05-15T12:18:48.324Z,14.44
2019-05-15T12:19:54.844Z,14.53
2019-05-15T12:20:48.705Z,14.86
2019-05-15T12:21:48.876Z,14.90
2019-05-15T12:22:48.568Z,15.01
2019-05-15T12:23:48.796Z,14.88
2019-05-15T12:24:49.966Z,14.95
2019-05-15T12:25:48.860Z,14.94
2019-05-15T12:26:48.972Z,14.61
2019-05-15T12:27:49.111Z,14.61
2019-05-15T12:28:48.879Z,14.65
2019-05-15T12:29:49.111Z,14.46
2019-05-15T12:30:49.247Z,14.61
2019-05-15T12:31:48.998Z,14.38
2019-05-15T12:32:49.277Z,14.69
2019-05-15T12:33:48.873Z,14.80
2019-05-15T12:34:49.274Z,14.88
2019-05-15T12:35:50.289Z,14.87
2019-05-15T12:36:53.098Z,14.86
2019-05-15T12:37:47.501Z,14.88
2019-05-15T12:38:50.041Z,15.08
2019-05-15T12:39:49.144Z,14.94
2019-05-15T12:59:47.322Z,15.49
2019-05-15T13:00:46.239Z,15.35
2019-05-15T13:01:46.218Z,15.02
2019-05-15T13:02:46.217Z,14.74
2019-05-15T13:03:48.487Z,15.09
2019-05-15T13:04:46.191Z,14.88
2019-05-15T13:05:48.560Z,14.98
2019-05-15T13:06:59.409Z,14.95
2019-05-15T13:07:48.313Z,15.21
2019-05-15T13:08:48.697Z,15.26
2019-05-15T13:09:46.126Z,15.02
2019-05-15T13:10:48.637Z,14.78
2019-05-15T13:11:48.364Z,14.95
2019-05-15T13:12:57.194Z,14.81
2019-05-15T13:13:48.454Z,14.53
2019-05-15T13:14:48.282Z,14.56
2019-05-15T13:15:48.300Z,14.93
2019-05-15T13:16:48.069Z,15.43
2019-05-15T13:17:46.097Z,15.79
2019-05-15T13:18:47.966Z,16.06
2019-05-15T13:19:48.325Z,15.92
2019-05-15T13:20:46.002Z,15.79
2019-05-15T13:21:45.991Z,15.93